Flight Track Log - Related Links

Times and Time Zones

All times are in EST time to prevent confusion due to time zone crossing. See the UPS9853 flight status page for this flight to view local times or setup timezone preferences in your user account.

Time Position Orientation Groundspeed Altitude Reporting Facility
EST Latitude Longitude Course Direction KTS MPH feet Rate Location/Type
Wed 09:53:26 PM 27.8667 -82.6833 233° Southwest 178 205 2,900  Level Tampa TRACON
Wed 09:55:02 PM 27.8333 -82.7333 233° Southwest 213 245 8,000 2,278 Climbing Tampa TRACON
Wed 09:57:23 PM 28.0244 -82.6717 16° North 327 376 11,900 1,821 Climbing Jacksonville Center
Wed 09:58:23 PM 28.1267 -82.6383 16° North 365 420 14,100 2,450 Climbing Jacksonville Center
Wed 09:59:23 PM 28.2353 -82.6122 12° North 384 442 16,800 2,550 Climbing Jacksonville Center
Wed 10:00:23 PM 28.3397 -82.6592 338° Northwest 378 435 19,200 2,150 Climbing Jacksonville Center
Wed 10:01:23 PM 28.4378 -82.7225 330° Northwest 384 442 21,100 1,950 Climbing Jacksonville Center
Wed 10:02:23 PM 28.5442 -82.7933 330° Northwest 406 467 23,100 2,100 Climbing Jacksonville Center
Wed 10:03:23 PM 28.6528 -82.8642 330° Northwest 434 499 25,300 1,400 Climbing Jacksonville Center
Wed 10:04:23 PM 28.7697 -82.9353 332° Northwest 434 499 25,900 300 Climbing Jacksonville Center
Wed 10:05:23 PM 28.8761 -83.0017 331° Northwest 439 505 25,900 850 Level Jacksonville Center
Wed 10:06:23 PM 28.9847 -83.0683 332° Northwest 439 505 27,600 1,000 Climbing Jacksonville Center
Wed 10:07:23 PM 29.0950 -83.1325 333° Northwest 439 505 27,900 150 Climbing Jacksonville Center
Wed 10:08:23 PM 29.2056 -83.2019 331° Northwest 446 513 27,900  Level Jacksonville Center
Wed 10:09:23 PM 29.3203 -83.2714 332° Northwest 452 520 27,900  Level Jacksonville Center
Wed 10:10:23 PM 29.4306 -83.3361 333° Northwest 452 520 27,900  Level Jacksonville Center
Wed 10:11:23 PM 29.5431 -83.4033 333° Northwest 452 520 27,900  Level Jacksonville Center
Wed 10:12:23 PM 29.6556 -83.4708 332° Northwest 452 520 27,900  Level Jacksonville Center
Wed 10:13:23 PM 29.7658 -83.5411 331° Northwest 452 520 27,900  Level Jacksonville Center
Wed 10:14:23 PM 29.8803 -83.6111 332° Northwest 457 526 27,900  Level Jacksonville Center
Wed 10:15:23 PM 29.9969 -83.6817 332° Northwest 457 526 27,900  Level Jacksonville Center
Wed 10:16:23 PM 30.1133 -83.7547 332° Northwest 462 532 27,900  Level Jacksonville Center
Wed 10:17:23 PM 30.2275 -83.8278 331° Northwest 462 532 27,900  Level Jacksonville Center
Wed 10:18:23 PM 30.3419 -83.8986 332° Northwest 462 532 27,900  Level Jacksonville Center
Wed 10:19:23 PM 30.4561 -83.9697 332° Northwest 462 532 27,900  Level Jacksonville Center
Wed 10:20:23 PM 30.5475 -84.0286 331° Northwest 462 532 27,900 50 Level Jacksonville Center
Wed 10:21:23 PM 30.6636 -84.1050 330° Northwest 450 518 28,000 50 Climbing Jacksonville Center
Wed 10:22:23 PM 30.7717 -84.1739 331° Northwest 445 512 28,000  Level Jacksonville Center
Wed 10:23:23 PM 30.8794 -84.2433 331° Northwest 439 505 28,000  Level Jacksonville Center
Wed 10:24:23 PM 30.9853 -84.3125 331° Northwest 439 505 28,000  Level Jacksonville Center
Wed 10:26:23 PM 31.2053 -84.4589 330° Northwest 444 511 28,000  Level Atlanta Center
Wed 10:27:23 PM 31.3158 -84.5297 331° Northwest 444 511 28,000  Level Atlanta Center
Wed 10:28:23 PM 31.4239 -84.6011 331° Northwest 444 511 28,000  Level Atlanta Center
Wed 10:29:23 PM 31.5342 -84.6722 331° Northwest 444 511 28,000  Level Atlanta Center
Wed 10:30:23 PM 31.6422 -84.7414 331° Northwest 439 505 28,000  Level Atlanta Center
Wed 10:31:23 PM 31.7525 -84.8156 330° Northwest 439 505 28,000  Level Atlanta Center
Wed 10:32:23 PM 31.8606 -84.8850 331° Northwest 439 505 28,000  Level Atlanta Center
Wed 10:33:23 PM 31.9708 -84.9569 331° Northwest 439 505 28,000  Level Atlanta Center
Wed 10:34:23 PM 32.0786 -85.0267 331° Northwest 439 505 28,000  Level Atlanta Center
Wed 10:35:23 PM 32.1886 -85.1017 330° Northwest 439 505 28,000  Level Atlanta Center
Wed 10:36:23 PM 32.3028 -85.1742 332° Northwest 439 505 28,000  Level Atlanta Center
Wed 10:37:23 PM 32.4108 -85.2419 332° Northwest 433 498 28,000  Level Atlanta Center
Wed 10:38:23 PM 32.5206 -85.3175 330° Northwest 444 511 28,000  Level Atlanta Center
Wed 10:39:23 PM 32.6222 -85.3878 330° Northwest 438 504 28,000  Level Atlanta Center
Wed 10:40:23 PM 32.7278 -85.4586 331° Northwest 433 498 28,000  Level Atlanta Center
Wed 10:41:23 PM 32.8272 -85.5244 331° Northwest 448 516 28,000  Level Atlanta Center
Wed 10:42:23 PM 32.9350 -85.5956 331° Northwest 448 516 28,000  Level Atlanta Center
Wed 10:43:23 PM 33.0425 -85.6694 330° Northwest 442 509 28,000  Level Atlanta Center
Wed 10:44:23 PM 33.1500 -85.7383 332° Northwest 442 509 28,000  Level Atlanta Center
Wed 10:45:23 PM 33.2597 -85.8150 330° Northwest 442 509 28,000  Level Atlanta Center
Wed 10:46:23 PM 33.3650 -85.8869 330° Northwest 442 509 28,000 -200 Level Atlanta Center
Wed 10:47:23 PM 33.4744 -85.9614 330° Northwest 442 509 27,600 -1,700 Descending Atlanta Center
Wed 10:48:23 PM 33.5922 -86.0414 331° Northwest 442 509 24,600 -2,850 Descending Atlanta Center
Wed 10:49:23 PM 33.6933 -86.1136 329° Northwest 442 509 21,900 -2,300 Descending Atlanta Center
Wed 10:50:23 PM 33.7964 -86.1836 331° Northwest 437 503 20,000 -2,159 Descending Atlanta Center
Wed 10:52:07 PM 33.9608 -86.3006 329° Northwest 392 451 16,000 -2,509 Descending Memphis Center
Wed 10:53:08 PM 34.0419 -86.3564 330° Northwest 351 404 13,100 -2,430 Descending Memphis Center
Wed 10:54:08 PM 34.1197 -86.4111 330° Northwest 332 382 11,100 -1,041 Descending Memphis Center
Wed 10:55:09 PM 34.1956 -86.4653 329° Northwest 325 374 11,000 -49 Descending Memphis Center
Wed 10:56:10 PM 34.2722 -86.5192 330° Northwest 321 369 11,000 -393 Level Memphis Center
Wed 10:57:11 PM 34.3531 -86.5583 338° Northwest 325 374 10,200 -492 Descending Memphis Center
Wed 10:58:12 PM 34.4389 -86.5575 360° North 309 356 10,000 -347 Descending Memphis Center
Wed 10:59:12 PM 34.5133 -86.5536 North 280 322 9,500 -942 Descending Memphis Center
Wed 11:00:13 PM 34.5858 -86.5556 359° North 267 307 8,100 -1,869 Descending Memphis Center
Wed 11:01:14 PM 34.6519 -86.5661 353° North 260 299 5,700 -2,016 Descending Memphis Center
Wed 11:02:15 PM 34.7111 -86.6144 326° Northwest 258 297 4,000 -1,230 Descending Memphis Center
Wed 11:03:16 PM 34.7686 -86.6625 326° Northwest 257 296 3,200 -492 Descending Memphis Center
Wed 11:04:17 PM 34.8072 -86.7283 306° West 230 265 3,000 -99 Descending Memphis Center
Wed 11:05:17 PM 34.7814 -86.7744 236° Southwest 189 217 3,000 -248 Level Memphis Center
Wed 11:06:18 PM 34.7394 -86.7808 187° South 163 188 2,500 -639 Descending Memphis Center
Wed 11:07:19 PM 34.7006 -86.7814 181° South 149 171 1,700 -738 Descending Memphis Center
Wed 11:08:20 PM 34.6647 -86.7822 181° South 138 159 1,000 -443 Descending Memphis Center
Wed 11:09:21 PM 34.6294 -86.7819 180° South 137 158 800 -197 Descending Memphis Center
Wed 11:11:00 PM 34.6333 -86.7667 North  Level FlightAware Approximate
Wed 11:18:00 PM 34.6372 -86.7751 North  Level Estimated

Login

Don't have an account? Register now (free) for customized features, flight alerts, and more!